createdAt,value
2018-11-03T00:01:59.009Z,5.90
2018-11-03T00:04:27.396Z,5.90
2018-11-03T00:06:55.763Z,5.80
2018-11-03T00:09:24.116Z,5.80
2018-11-03T00:11:52.483Z,5.70
2018-11-03T00:14:20.830Z,5.70
2018-11-03T00:16:49.323Z,5.70
2018-11-03T00:19:17.660Z,5.70
2018-11-03T00:21:46.089Z,5.70
2018-11-03T00:24:14.442Z,5.70
2018-11-03T00:26:42.818Z,5.70
2018-11-03T00:29:11.157Z,5.70
2018-11-03T00:31:39.521Z,5.60
2018-11-03T00:34:07.934Z,5.60
2018-11-03T00:36:36.288Z,5.60
2018-11-03T00:39:08.223Z,5.50
2018-11-03T00:41:36.603Z,5.50
2018-11-03T00:44:05.464Z,5.50
2018-11-03T00:46:33.883Z,5.40
2018-11-03T00:49:02.627Z,5.30
2018-11-03T00:51:30.967Z,5.30
2018-11-03T00:53:59.322Z,5.30
2018-11-03T00:56:27.711Z,5.20
2018-11-03T00:58:56.077Z,5.20
2018-11-03T01:01:24.620Z,5.10
2018-11-03T01:03:52.952Z,5.10
2018-11-03T01:06:21.334Z,5.10
2018-11-03T01:08:49.670Z,5.10
2018-11-03T01:11:18.034Z,5.10
2018-11-03T01:13:46.437Z,5.00
2018-11-03T01:16:14.808Z,5.00
2018-11-03T01:18:43.147Z,4.90
2018-11-03T01:21:11.499Z,4.90
2018-11-03T01:23:39.985Z,4.90
2018-11-03T01:26:08.210Z,4.90
2018-11-03T01:28:36.570Z,4.90
2018-11-03T01:31:04.911Z,4.90
2018-11-03T01:33:33.235Z,4.80
2018-11-03T01:36:01.621Z,4.80
2018-11-03T01:38:30.013Z,4.80
2018-11-03T01:40:58.538Z,4.70
2018-11-03T01:43:26.910Z,4.70
2018-11-03T01:45:55.250Z,4.70
2018-11-03T01:48:23.627Z,4.70
2018-11-03T01:50:51.970Z,4.60
2018-11-03T01:53:20.378Z,4.60
2018-11-03T01:55:48.728Z,4.50
2018-11-03T01:58:17.084Z,4.50
2018-11-03T02:00:45.449Z,4.60
2018-11-03T02:03:13.855Z,4.50
2018-11-03T02:05:42.178Z,4.40
2018-11-03T02:08:10.525Z,4.40
2018-11-03T02:10:38.857Z,4.40
2018-11-03T02:13:07.237Z,4.30
2018-11-03T02:15:35.579Z,4.30
2018-11-03T02:18:03.953Z,4.30
2018-11-03T02:20:32.367Z,4.30
2018-11-03T02:23:00.775Z,4.20
2018-11-03T02:25:29.095Z,4.20
2018-11-03T02:27:57.500Z,4.20
2018-11-03T02:30:25.844Z,4.10
2018-11-03T02:32:54.254Z,4.10
2018-11-03T02:35:22.592Z,4.10
2018-11-03T02:37:50.959Z,4.10
2018-11-03T02:40:19.385Z,4.10
2018-11-03T02:42:47.935Z,4.10
2018-11-03T02:45:16.282Z,4.00
2018-11-03T02:47:46.903Z,4.00
2018-11-03T02:50:15.288Z,4.00
2018-11-03T02:52:44.237Z,4.10
2018-11-03T02:55:12.599Z,4.10
2018-11-03T02:57:40.975Z,4.10
2018-11-03T03:00:10.464Z,4.10
2018-11-03T03:02:38.878Z,4.10
2018-11-03T03:05:08.452Z,4.00
2018-11-03T03:07:36.839Z,4.00
2018-11-03T03:10:07.213Z,4.00
2018-11-03T03:12:35.963Z,4.00
2018-11-03T03:15:04.949Z,4.00
2018-11-03T03:17:33.308Z,4.00
2018-11-03T03:20:01.698Z,4.00
2018-11-03T03:22:30.082Z,3.90
2018-11-03T03:24:58.487Z,3.90
2018-11-03T03:27:27.153Z,3.90
2018-11-03T03:29:55.536Z,3.90
2018-11-03T03:32:23.892Z,3.80
2018-11-03T03:34:52.256Z,3.80
2018-11-03T03:37:20.651Z,3.80
2018-11-03T03:39:48.994Z,3.80
2018-11-03T03:42:17.353Z,3.80
2018-11-03T03:44:45.742Z,3.80
2018-11-03T03:47:14.127Z,3.80
2018-11-03T03:49:42.754Z,3.70
2018-11-03T03:52:11.148Z,3.70
2018-11-03T03:54:39.583Z,3.70
2018-11-03T03:57:07.964Z,3.70
2018-11-03T03:59:36.358Z,3.70
2018-11-03T04:02:04.749Z,3.70
2018-11-03T04:04:33.147Z,3.70
2018-11-03T04:07:01.539Z,3.70
2018-11-03T04:09:29.902Z,3.60
2018-11-03T04:11:58.265Z,3.60
2018-11-03T04:14:26.770Z,3.60
2018-11-03T04:16:55.132Z,3.60
2018-11-03T04:19:23.510Z,3.60
2018-11-03T04:21:51.855Z,3.60
2018-11-03T04:24:20.242Z,3.50
2018-11-03T04:26:48.591Z,3.50
2018-11-03T04:29:16.965Z,3.50
2018-11-03T04:31:45.307Z,3.40
2018-11-03T04:34:13.780Z,3.40
2018-11-03T04:36:42.222Z,3.40
2018-11-03T04:39:10.598Z,3.40
2018-11-03T04:41:38.944Z,3.30
2018-11-03T04:44:07.491Z,3.30
2018-11-03T04:46:35.872Z,3.30
2018-11-03T04:49:04.507Z,3.30
2018-11-03T04:51:34.506Z,3.30
2018-11-03T04:54:02.895Z,3.30
2018-11-03T04:56:31.258Z,3.20
2018-11-03T04:58:59.711Z,3.30
2018-11-03T05:01:28.073Z,3.20
2018-11-03T05:03:56.454Z,3.20
2018-11-03T05:06:24.812Z,3.20
2018-11-03T05:08:53.230Z,3.20
2018-11-03T05:11:21.653Z,3.20
2018-11-03T05:13:50.188Z,3.20
2018-11-03T05:16:18.535Z,3.20
2018-11-03T05:18:46.888Z,3.20
2018-11-03T05:21:15.234Z,3.20
2018-11-03T05:23:43.601Z,3.20
2018-11-03T05:26:12.028Z,3.10
2018-11-03T05:28:40.409Z,3.10
2018-11-03T05:31:08.794Z,3.10
2018-11-03T05:33:37.155Z,3.10
2018-11-03T05:36:05.698Z,3.10
2018-11-03T05:38:34.097Z,3.10
2018-11-03T05:41:02.480Z,3.00
2018-11-03T05:43:30.831Z,3.00
2018-11-03T05:45:59.195Z,3.00
2018-11-03T05:48:27.607Z,2.90
2018-11-03T05:50:55.919Z,2.90
2018-11-03T05:53:24.291Z,2.90
2018-11-03T05:55:52.635Z,2.90
2018-11-03T05:58:21.043Z,2.90
2018-11-03T06:00:49.479Z,2.90
2018-11-03T06:03:17.813Z,2.80
2018-11-03T06:05:46.224Z,2.80
2018-11-03T06:08:14.574Z,2.80
2018-11-03T06:10:42.996Z,2.80
2018-11-03T06:13:11.344Z,2.80
2018-11-03T06:15:39.804Z,2.80
2018-11-03T06:18:08.108Z,2.70
2018-11-03T06:20:36.518Z,2.80
2018-11-03T06:23:04.955Z,2.70
2018-11-03T06:25:33.296Z,2.70
2018-11-03T06:28:01.868Z,2.70
2018-11-03T06:30:30.147Z,2.70
2018-11-03T06:32:58.520Z,2.70
2018-11-03T06:35:26.928Z,2.70
2018-11-03T06:37:55.343Z,2.70
2018-11-03T06:40:23.750Z,2.70
2018-11-03T06:42:52.153Z,2.70
2018-11-03T06:45:20.534Z,2.70
2018-11-03T06:47:48.966Z,2.70
2018-11-03T06:50:17.344Z,2.70
2018-11-03T06:52:45.683Z,2.70
2018-11-03T06:55:14.155Z,2.70
2018-11-03T06:57:42.515Z,2.80
2018-11-03T07:00:11.242Z,2.80
2018-11-03T07:02:39.858Z,2.80
2018-11-03T07:05:08.935Z,2.80
2018-11-03T07:07:37.350Z,2.80
2018-11-03T07:10:06.776Z,2.90
2018-11-03T07:12:35.201Z,2.80
2018-11-03T07:15:03.534Z,2.80
2018-11-03T07:17:31.884Z,2.90
2018-11-03T07:20:00.262Z,2.90
2018-11-03T07:22:28.608Z,3.00
2018-11-03T07:24:56.979Z,3.00
2018-11-03T07:27:25.394Z,3.10
2018-11-03T07:29:53.844Z,3.10
2018-11-03T07:32:22.106Z,3.20
2018-11-03T07:34:50.456Z,3.20
2018-11-03T07:37:18.835Z,3.20
2018-11-03T07:39:47.370Z,3.30
2018-11-03T07:42:15.738Z,3.40
2018-11-03T07:44:44.092Z,3.50
2018-11-03T07:47:12.485Z,3.50
2018-11-03T07:49:40.832Z,3.60
2018-11-03T07:52:09.196Z,3.70
2018-11-03T07:54:37.558Z,3.80
2018-11-03T07:57:05.988Z,3.80
2018-11-03T07:59:34.354Z,3.90
2018-11-03T08:02:02.740Z,3.90
2018-11-03T08:04:31.199Z,4.00
2018-11-03T08:06:59.936Z,4.10
2018-11-03T08:09:28.285Z,4.20
2018-11-03T08:11:56.640Z,4.20
2018-11-03T08:14:25.007Z,4.30
2018-11-03T08:16:53.402Z,4.40
2018-11-03T08:19:21.766Z,4.50
2018-11-03T08:21:50.151Z,4.50
2018-11-03T08:24:18.492Z,4.60
2018-11-03T08:26:46.872Z,4.60
2018-11-03T08:29:15.223Z,4.70
2018-11-03T08:31:43.685Z,4.80
2018-11-03T08:34:11.949Z,4.80
2018-11-03T08:36:40.303Z,4.90
2018-11-03T08:39:09.739Z,5.00
2018-11-03T08:41:38.236Z,5.00
2018-11-03T08:44:06.575Z,5.10
2018-11-03T08:46:34.932Z,5.20
2018-11-03T08:49:03.338Z,5.20
2018-11-03T08:51:31.700Z,5.30
2018-11-03T08:54:00.029Z,5.40
2018-11-03T08:56:28.477Z,5.50
2018-11-03T08:58:56.808Z,5.50
2018-11-03T09:01:25.178Z,5.60
2018-11-03T09:03:53.521Z,5.70
2018-11-03T09:06:21.883Z,5.70
2018-11-03T09:08:50.199Z,5.80
2018-11-03T09:11:18.556Z,5.80
2018-11-03T09:13:46.918Z,5.90
2018-11-03T09:16:15.259Z,6.00
2018-11-03T09:18:43.627Z,6.10
2018-11-03T09:21:11.952Z,6.10
2018-11-03T09:23:40.300Z,6.20
2018-11-03T09:26:08.668Z,6.30
2018-11-03T09:28:37.035Z,6.30
2018-11-03T09:31:05.459Z,6.40
2018-11-03T09:33:33.825Z,6.50
2018-11-03T09:36:02.173Z,6.50
2018-11-03T09:38:30.619Z,6.60
2018-11-03T09:40:58.921Z,6.70
2018-11-03T09:43:27.587Z,6.80
2018-11-03T09:45:55.932Z,6.80
2018-11-03T09:48:24.284Z,6.90
2018-11-03T09:50:52.662Z,7.00
2018-11-03T09:53:21.053Z,7.00
2018-11-03T09:55:49.397Z,7.10
2018-11-03T09:58:17.751Z,7.10
2018-11-03T10:00:46.128Z,7.20
2018-11-03T10:03:14.502Z,7.20
2018-11-03T10:05:42.843Z,7.30
2018-11-03T10:08:11.249Z,7.30
2018-11-03T10:10:39.572Z,7.30
2018-11-03T10:13:07.985Z,7.40
2018-11-03T10:15:36.330Z,7.40
2018-11-03T10:18:05.064Z,7.40
2018-11-03T10:20:33.414Z,7.40
2018-11-03T10:23:01.912Z,7.50
2018-11-03T10:25:30.156Z,7.50
2018-11-03T10:27:58.526Z,7.50
2018-11-03T10:30:26.857Z,7.60
2018-11-03T10:32:55.230Z,7.60
2018-11-03T10:35:23.585Z,7.60
2018-11-03T10:37:51.960Z,7.60
2018-11-03T10:40:20.314Z,7.60
2018-11-03T10:42:48.662Z,7.70
2018-11-03T10:45:17.504Z,7.70
2018-11-03T10:47:46.188Z,7.70
2018-11-03T10:50:16.439Z,7.70
2018-11-03T10:52:45.506Z,7.70
2018-11-03T10:55:15.239Z,7.70
2018-11-03T10:57:43.801Z,7.70
2018-11-03T11:00:18.852Z,7.80
2018-11-03T11:02:52.443Z,7.80
2018-11-03T11:06:23.727Z,7.90
2018-11-03T11:08:57.369Z,7.90
2018-11-03T11:11:31.126Z,8.00
2018-11-03T11:13:59.666Z,8.00
2018-11-03T11:16:27.997Z,8.10
2018-11-03T11:18:56.309Z,8.10
2018-11-03T11:21:24.655Z,8.10
2018-11-03T11:23:53.003Z,8.20
2018-11-03T11:26:21.354Z,8.20
2018-11-03T11:28:49.723Z,8.30
2018-11-03T11:31:18.100Z,8.30
2018-11-03T11:33:46.467Z,8.30
2018-11-03T11:36:14.813Z,8.30
2018-11-03T11:38:43.204Z,8.40
2018-11-03T11:41:11.540Z,8.40
2018-11-03T11:43:39.886Z,8.40
2018-11-03T11:46:08.392Z,8.50
2018-11-03T11:48:36.735Z,8.50
2018-11-03T11:51:05.462Z,8.60
2018-11-03T11:53:33.795Z,8.60
2018-11-03T11:56:02.154Z,8.60
2018-11-03T11:58:30.525Z,8.60
2018-11-03T12:00:58.956Z,8.60
2018-11-03T12:03:27.244Z,8.70
2018-11-03T12:05:55.623Z,8.70
2018-11-03T12:08:24.066Z,8.70
2018-11-03T12:10:52.421Z,8.70
2018-11-03T12:13:20.763Z,8.80
2018-11-03T12:15:49.110Z,8.80
2018-11-03T12:18:17.464Z,8.80
2018-11-03T12:20:45.868Z,8.90
2018-11-03T12:23:14.219Z,8.90
2018-11-03T12:25:42.668Z,8.90
2018-11-03T12:28:10.925Z,8.90
2018-11-03T12:30:39.300Z,8.90
2018-11-03T12:33:07.640Z,8.90
2018-11-03T12:35:36.008Z,9.00
2018-11-03T12:38:04.365Z,9.00
2018-11-03T12:40:32.738Z,9.00
2018-11-03T12:43:01.104Z,9.00
2018-11-03T12:45:29.814Z,9.00
2018-11-03T12:47:58.335Z,9.00
2018-11-03T12:50:26.691Z,9.10
2018-11-03T12:52:55.043Z,9.10
2018-11-03T12:55:23.424Z,9.10
2018-11-03T12:57:51.763Z,9.10
2018-11-03T13:00:20.115Z,9.20
2018-11-03T13:02:48.440Z,9.20
2018-11-03T13:05:16.892Z,9.20
2018-11-03T13:07:45.939Z,9.20
2018-11-03T13:10:14.517Z,9.20
2018-11-03T13:12:43.243Z,9.20
2018-11-03T13:15:12.625Z,9.20
2018-11-03T13:17:41.012Z,9.30
2018-11-03T13:20:11.178Z,9.30
2018-11-03T13:22:39.690Z,9.30
2018-11-03T13:25:08.753Z,9.40
2018-11-03T13:27:37.185Z,9.40
2018-11-03T13:30:06.561Z,9.40
2018-11-03T13:32:34.894Z,9.40
2018-11-03T13:35:03.322Z,9.40
2018-11-03T13:37:31.674Z,9.40
2018-11-03T13:39:59.996Z,9.40
2018-11-03T13:42:28.353Z,9.50
2018-11-03T13:44:56.689Z,9.50
2018-11-03T13:47:25.120Z,9.50
2018-11-03T13:49:53.384Z,9.50
2018-11-03T13:52:21.735Z,9.60
2018-11-03T13:54:50.123Z,9.70
2018-11-03T13:57:18.470Z,9.70
2018-11-03T13:59:46.796Z,9.70
2018-11-03T14:02:15.199Z,9.80
2018-11-03T14:04:43.523Z,9.80
2018-11-03T14:07:11.975Z,9.90
2018-11-03T14:09:40.311Z,9.90
2018-11-03T14:12:08.724Z,9.90
2018-11-03T14:14:37.055Z,10.00
2018-11-03T14:17:05.491Z,10.00
2018-11-03T14:19:33.817Z,10.00
2018-11-03T14:22:02.228Z,10.00
2018-11-03T14:24:30.569Z,10.00
2018-11-03T14:26:58.933Z,9.90
2018-11-03T14:29:27.262Z,9.80
2018-11-03T14:31:55.633Z,9.80
2018-11-03T14:34:24.149Z,9.70
2018-11-03T14:36:52.525Z,9.60
2018-11-03T14:39:20.861Z,9.60
2018-11-03T14:41:49.219Z,9.50
2018-11-03T14:44:17.563Z,9.50
2018-11-03T14:46:45.968Z,9.50
2018-11-03T14:49:14.272Z,9.50
2018-11-03T14:51:42.628Z,9.40
2018-11-03T14:54:10.960Z,9.40
2018-11-03T14:56:39.336Z,9.40
2018-11-03T14:59:07.760Z,9.30
2018-11-03T15:01:36.150Z,9.30
2018-11-03T15:04:05.055Z,9.20
2018-11-03T15:06:33.422Z,9.20
2018-11-03T15:09:01.749Z,9.20
2018-11-03T15:11:30.101Z,9.20
2018-11-03T15:13:58.579Z,9.10
2018-11-03T15:16:26.786Z,9.10
2018-11-03T15:18:55.140Z,9.00
2018-11-03T15:21:23.489Z,9.00
2018-11-03T15:23:51.844Z,8.90
2018-11-03T15:26:20.167Z,8.90
2018-11-03T15:28:48.511Z,8.90
2018-11-03T15:31:16.847Z,8.80
2018-11-03T15:33:45.199Z,8.80
2018-11-03T15:36:13.680Z,8.70
2018-11-03T15:38:42.061Z,8.60
2018-11-03T15:41:10.453Z,8.60
2018-11-03T15:43:38.767Z,8.50
2018-11-03T15:46:07.143Z,8.50
2018-11-03T15:48:35.531Z,8.40
2018-11-03T15:51:03.872Z,8.30
2018-11-03T15:53:32.235Z,8.20
2018-11-03T15:56:00.567Z,8.10
2018-11-03T15:58:28.917Z,8.00
2018-11-03T16:00:57.258Z,7.90
2018-11-03T16:03:25.620Z,7.90
2018-11-03T16:05:54.011Z,7.80
2018-11-03T16:08:22.364Z,7.80
2018-11-03T16:10:50.691Z,7.70
2018-11-03T16:13:19.064Z,7.60
2018-11-03T16:15:47.392Z,7.50
2018-11-03T16:18:15.764Z,7.50
2018-11-03T16:20:44.123Z,7.40
2018-11-03T16:23:12.463Z,7.30
2018-11-03T16:25:40.869Z,7.20
2018-11-03T16:28:09.174Z,7.10
2018-11-03T16:30:37.532Z,7.10
2018-11-03T16:33:05.891Z,7.00
2018-11-03T16:35:34.283Z,7.00
2018-11-03T16:38:02.724Z,6.90
2018-11-03T16:40:31.075Z,6.90
2018-11-03T16:42:59.408Z,6.80
2018-11-03T16:45:27.819Z,6.80
2018-11-03T16:47:56.116Z,6.70
2018-11-03T16:50:24.467Z,6.60
2018-11-03T16:52:52.775Z,6.60
2018-11-03T16:55:21.227Z,6.60
2018-11-03T16:57:49.501Z,6.50
2018-11-03T17:00:17.865Z,6.50
2018-11-03T17:02:46.187Z,6.50
2018-11-03T17:05:15.274Z,6.40
2018-11-03T17:07:43.624Z,6.40
2018-11-03T17:10:13.796Z,6.30
2018-11-03T17:12:43.566Z,6.30
2018-11-03T17:15:12.361Z,6.20
2018-11-03T17:17:40.756Z,6.20
2018-11-03T17:20:09.574Z,6.10
2018-11-03T17:22:37.929Z,6.10
2018-11-03T17:25:07.693Z,6.00
2018-11-03T17:27:35.946Z,6.00
2018-11-03T17:30:04.627Z,6.00
2018-11-03T17:32:32.977Z,5.90
2018-11-03T17:35:01.364Z,5.80
2018-11-03T17:37:29.722Z,5.80
2018-11-03T17:39:58.070Z,5.80
2018-11-03T17:42:26.397Z,5.70
2018-11-03T17:44:54.760Z,5.70
2018-11-03T17:47:23.080Z,5.70
2018-11-03T17:49:51.395Z,5.60
2018-11-03T17:52:19.719Z,5.60
2018-11-03T17:54:48.094Z,5.60
2018-11-03T17:57:16.407Z,5.50
2018-11-03T17:59:45.494Z,5.50
2018-11-03T18:02:13.850Z,5.50
2018-11-03T18:04:42.181Z,5.50
2018-11-03T18:07:10.525Z,5.50
2018-11-03T18:09:38.936Z,5.40
2018-11-03T18:12:07.287Z,5.40
2018-11-03T18:14:35.622Z,5.30
2018-11-03T18:17:04.035Z,5.30
2018-11-03T18:19:32.376Z,5.30
2018-11-03T18:22:00.785Z,5.20
2018-11-03T18:24:29.187Z,5.20
2018-11-03T18:26:57.546Z,5.20
2018-11-03T18:29:25.877Z,5.20
2018-11-03T18:31:54.238Z,5.10
2018-11-03T18:34:22.581Z,5.10
2018-11-03T18:36:50.952Z,5.10
2018-11-03T18:39:19.296Z,5.00
2018-11-03T18:41:47.731Z,5.00
2018-11-03T18:44:15.987Z,5.00
2018-11-03T18:46:44.629Z,5.00
2018-11-03T18:49:12.899Z,4.90
2018-11-03T18:51:41.294Z,4.90
2018-11-03T18:54:09.612Z,4.90
2018-11-03T18:56:37.951Z,4.80
2018-11-03T18:59:06.429Z,4.80
2018-11-03T19:01:34.794Z,4.80
2018-11-03T19:04:03.152Z,4.80
2018-11-03T19:06:31.517Z,4.70
2018-11-03T19:08:59.867Z,4.70
2018-11-03T19:11:28.200Z,4.70
2018-11-03T19:13:56.558Z,4.70
2018-11-03T19:16:24.899Z,4.70
2018-11-03T19:18:53.253Z,4.60
2018-11-03T19:21:21.574Z,4.60
2018-11-03T19:23:50.045Z,4.60
2018-11-03T19:26:18.359Z,4.50
2018-11-03T19:28:46.703Z,4.50
2018-11-03T19:31:15.037Z,4.50
2018-11-03T19:33:43.397Z,4.50
2018-11-03T19:36:11.724Z,4.40
2018-11-03T19:38:40.104Z,4.40
2018-11-03T19:41:08.455Z,4.30
2018-11-03T19:46:03.139Z,4.30
2018-11-03T19:48:31.498Z,4.30
2018-11-03T19:50:59.860Z,4.30
2018-11-03T19:53:28.260Z,4.20
2018-11-03T19:55:56.612Z,4.30
2018-11-03T19:58:24.995Z,4.30
2018-11-03T20:00:53.367Z,4.30
2018-11-03T20:03:21.788Z,4.30
2018-11-03T20:05:50.195Z,4.20
2018-11-03T20:08:18.596Z,4.20
2018-11-03T20:10:46.992Z,4.30
2018-11-03T20:13:15.368Z,4.20
2018-11-03T20:15:43.731Z,4.20
2018-11-03T20:18:12.114Z,4.20
2018-11-03T20:20:40.460Z,4.20
2018-11-03T20:23:08.865Z,4.20
2018-11-03T20:25:37.244Z,4.20
2018-11-03T20:28:05.738Z,4.20
2018-11-03T20:30:34.104Z,4.20
2018-11-03T20:33:02.472Z,4.20
2018-11-03T20:35:30.835Z,4.20
2018-11-03T20:37:59.279Z,4.20
2018-11-03T20:40:27.635Z,4.20
2018-11-03T20:42:55.985Z,4.20
2018-11-03T20:45:24.488Z,4.20
2018-11-03T20:47:52.843Z,4.10
2018-11-03T20:50:21.229Z,4.20
2018-11-03T20:52:49.555Z,4.10
2018-11-03T20:55:17.962Z,4.20
2018-11-03T20:57:46.355Z,4.10
2018-11-03T21:00:15.795Z,4.10
2018-11-03T21:02:44.906Z,4.10
2018-11-03T21:05:13.281Z,4.10
2018-11-03T21:07:42.974Z,4.10
2018-11-03T21:10:11.415Z,4.10
2018-11-03T21:12:39.793Z,4.10
2018-11-03T21:15:08.191Z,4.10
2018-11-03T21:17:36.592Z,4.00
2018-11-03T21:20:05.252Z,4.00
2018-11-03T21:22:33.605Z,4.00
2018-11-03T21:25:01.982Z,4.00
2018-11-03T21:27:30.350Z,4.00
2018-11-03T21:29:58.804Z,3.90
2018-11-03T21:32:27.180Z,3.90
2018-11-03T21:34:55.534Z,3.90
2018-11-03T21:37:23.919Z,3.90
2018-11-03T21:39:52.316Z,3.90
2018-11-03T21:42:20.709Z,3.90
2018-11-03T21:44:49.104Z,3.90
2018-11-03T21:47:17.468Z,3.90
2018-11-03T21:49:45.874Z,3.90
2018-11-03T21:52:14.232Z,3.80
2018-11-03T21:54:42.612Z,3.80
2018-11-03T21:57:10.962Z,3.80
2018-11-03T21:59:39.339Z,3.80
2018-11-03T22:02:07.772Z,3.80
2018-11-03T22:04:36.174Z,3.80
2018-11-03T22:07:04.576Z,3.80
2018-11-03T22:09:32.963Z,3.80
2018-11-03T22:12:01.340Z,3.70
2018-11-03T22:14:29.672Z,3.70
2018-11-03T22:16:58.072Z,3.70
2018-11-03T22:19:26.422Z,3.70
2018-11-03T22:21:54.861Z,3.70
2018-11-03T22:24:23.189Z,3.60
2018-11-03T22:26:51.556Z,3.60
2018-11-03T22:29:19.903Z,3.60
2018-11-03T22:31:48.278Z,3.60
2018-11-03T22:34:16.667Z,3.60
2018-11-03T22:36:45.059Z,3.60
2018-11-03T22:39:13.435Z,3.60
2018-11-03T22:41:41.799Z,3.60
2018-11-03T22:44:10.166Z,3.60
2018-11-03T22:46:38.540Z,3.60
2018-11-03T22:49:06.918Z,3.60
2018-11-03T22:51:35.304Z,3.60
2018-11-03T22:54:03.671Z,3.70
2018-11-03T22:56:32.027Z,3.60
2018-11-03T22:59:00.364Z,3.70
2018-11-03T23:01:28.728Z,3.60
2018-11-03T23:03:57.077Z,3.60
2018-11-03T23:06:25.489Z,3.60
2018-11-03T23:08:53.847Z,3.60
2018-11-03T23:11:22.391Z,3.60
2018-11-03T23:13:50.772Z,3.50
2018-11-03T23:16:19.127Z,3.50
2018-11-03T23:18:47.486Z,3.50
2018-11-03T23:21:15.871Z,3.50
2018-11-03T23:23:44.235Z,3.50
2018-11-03T23:26:12.604Z,3.50
2018-11-03T23:28:40.939Z,3.50
2018-11-03T23:31:09.311Z,3.50
2018-11-03T23:33:37.668Z,3.50
2018-11-03T23:36:06.120Z,3.50
2018-11-03T23:38:34.486Z,3.50
2018-11-03T23:41:02.870Z,3.50
2018-11-03T23:43:31.223Z,3.40
2018-11-03T23:45:59.569Z,3.40
2018-11-03T23:48:28.551Z,3.40
2018-11-03T23:50:56.916Z,3.40
2018-11-03T23:53:25.308Z,3.40
2018-11-03T23:55:53.671Z,3.40
2018-11-03T23:58:22.019Z,3.40
